Main page
METAR-TAF:

METAR-TAF

Airports :

Gorgan Airport

Gorgan, Iran

latitude: 36-49N, longitude: 054-28E, elevation: 155 m

Current weather observation

The report was made 56 minutes ago, at 00:00 UTC
Calm wind
Temperature 22°C
Humidity 94%
Pressure 1016 hPa
Visibility 10 km or more
Scattered clouds at a height of 3000 ft

METAR: OING 210000Z 00000KT 9999 SCT030 22/21 Q1016

Time: 05:26 (00:56 UTC)


TAF: missing

Weather observations and forecasts of more than 4000 airports (METAR and TAF reports).

The available stations are represented by yellow and red dots on the map.

Hover mouse over dot to see the name of the station.

Then click to see weather observations and forecasts.

To change the map : click on the green buttons with a black cross to zoom in, on the green button with a dash to zoom out, or on the green arrows for adjacent maps.


METAR-TAF: